createdAt,value
2024-02-15T00:00:52.102Z,75.00
2024-02-15T00:03:20.929Z,74.90
2024-02-15T00:05:49.071Z,75.00
2024-02-15T00:08:19.451Z,75.00
2024-02-15T00:10:47.985Z,75.00
2024-02-15T00:13:16.340Z,75.10
2024-02-15T00:15:44.510Z,75.00
2024-02-15T00:18:12.670Z,75.10
2024-02-15T00:20:40.858Z,75.00
2024-02-15T00:23:08.893Z,74.80
2024-02-15T00:25:38.249Z,75.10
2024-02-15T00:28:07.131Z,74.90
2024-02-15T00:30:35.372Z,75.10
2024-02-15T00:33:04.106Z,74.90
2024-02-15T00:35:32.413Z,75.70
2024-02-15T00:38:00.739Z,75.00
2024-02-15T00:40:28.602Z,75.00
2024-02-15T00:42:58.319Z,75.10
2024-02-15T00:45:26.749Z,75.00
2024-02-15T00:47:55.451Z,75.00
2024-02-15T00:50:23.545Z,75.10
2024-02-15T00:52:51.568Z,75.10
2024-02-15T00:55:20.501Z,74.80
2024-02-15T00:57:48.884Z,74.80
2024-02-15T01:00:18.924Z,75.20
2024-02-15T01:02:47.051Z,75.10
2024-02-15T01:05:16.721Z,75.10
2024-02-15T01:07:44.780Z,74.90
2024-02-15T01:10:13.198Z,75.20
2024-02-15T01:12:41.130Z,75.10
2024-02-15T01:15:09.682Z,75.30
2024-02-15T01:17:38.964Z,75.20
2024-02-15T01:20:08.856Z,75.20
2024-02-15T01:22:36.896Z,75.20
2024-02-15T01:25:05.573Z,75.20
2024-02-15T01:27:33.586Z,75.20
2024-02-15T01:30:01.669Z,75.30
2024-02-15T01:32:30.025Z,75.30
2024-02-15T01:34:59.528Z,75.20
2024-02-15T01:37:27.621Z,75.10
2024-02-15T01:39:55.856Z,75.20
2024-02-15T01:42:23.866Z,75.40
2024-02-15T01:44:54.365Z,75.30
2024-02-15T01:47:24.335Z,75.20
2024-02-15T01:49:52.681Z,75.40
2024-02-15T01:52:22.004Z,75.30
2024-02-15T01:54:49.997Z,75.20
2024-02-15T01:57:17.968Z,75.20
2024-02-15T01:59:46.215Z,75.20
2024-02-15T02:02:14.799Z,75.20
2024-02-15T02:04:42.746Z,75.10
2024-02-15T02:07:10.799Z,75.20
2024-02-15T02:09:40.227Z,75.30
2024-02-15T02:12:09.456Z,75.20
2024-02-15T02:14:37.737Z,75.50
2024-02-15T02:17:15.716Z,75.60
2024-02-15T02:19:45.722Z,75.30
2024-02-15T02:22:14.130Z,75.50
2024-02-15T02:24:56.611Z,75.60
2024-02-15T02:27:24.732Z,75.40
2024-02-15T02:29:52.948Z,75.30
2024-02-15T02:32:21.221Z,75.30
2024-02-15T02:34:49.627Z,75.40
2024-02-15T02:37:18.038Z,75.50
2024-02-15T02:39:46.106Z,75.30
2024-02-15T02:42:15.838Z,75.30
2024-02-15T02:44:44.091Z,75.40
2024-02-15T02:47:12.062Z,75.30
2024-02-15T02:49:40.375Z,75.40
2024-02-15T02:52:09.809Z,75.40
2024-02-15T02:54:37.788Z,75.30
2024-02-15T02:57:07.962Z,75.30
2024-02-15T02:59:41.223Z,75.30
2024-02-15T03:02:09.784Z,75.30
2024-02-15T03:04:40.119Z,75.50
2024-02-15T03:07:08.598Z,75.50
2024-02-15T03:09:38.584Z,75.40
2024-02-15T03:12:07.247Z,75.30
2024-02-15T03:14:36.472Z,75.30
2024-02-15T03:17:06.325Z,75.40
2024-02-15T03:19:34.293Z,75.40
2024-02-15T03:22:02.678Z,75.50
2024-02-15T03:24:30.815Z,75.50
2024-02-15T03:26:58.737Z,75.50
2024-02-15T03:29:27.214Z,75.50
2024-02-15T03:31:56.010Z,75.50
2024-02-15T03:34:27.175Z,75.40
2024-02-15T03:36:55.567Z,75.40
2024-02-15T03:39:24.779Z,75.50
2024-02-15T03:41:55.061Z,75.30
2024-02-15T03:44:23.537Z,75.40
2024-02-15T03:46:53.192Z,75.50
2024-02-15T03:49:21.089Z,75.50
2024-02-15T03:51:50.601Z,75.40
2024-02-15T03:54:18.519Z,75.50
2024-02-15T03:56:52.939Z,75.30
2024-02-15T03:59:27.584Z,75.20
2024-02-15T04:01:55.805Z,75.40
2024-02-15T04:04:23.734Z,75.40
2024-02-15T04:06:53.445Z,75.50
2024-02-15T04:09:21.930Z,75.40
2024-02-15T04:11:54.342Z,75.50
2024-02-15T04:14:22.562Z,75.50
2024-02-15T04:16:50.432Z,75.50
2024-02-15T04:19:21.389Z,75.40
2024-02-15T04:21:49.514Z,75.50
2024-02-15T04:24:18.748Z,75.40
2024-02-15T04:26:48.726Z,75.40
2024-02-15T04:29:16.574Z,75.50
2024-02-15T04:31:44.393Z,75.50
2024-02-15T04:34:12.638Z,75.50
2024-02-15T04:36:40.457Z,75.50
2024-02-15T04:39:10.620Z,75.50
2024-02-15T04:41:40.210Z,75.90
2024-02-15T04:44:13.149Z,75.60
2024-02-15T04:46:42.257Z,75.60
2024-02-15T04:49:11.500Z,75.60
2024-02-15T04:51:41.006Z,75.60
2024-02-15T04:54:09.031Z,75.50
2024-02-15T04:56:37.139Z,75.40
2024-02-15T04:59:07.994Z,75.50
2024-02-15T05:01:35.837Z,75.50
2024-02-15T05:04:07.548Z,75.40
2024-02-15T05:06:35.456Z,75.40
2024-02-15T05:09:08.482Z,75.80
2024-02-15T05:11:37.598Z,75.70
2024-02-15T05:14:07.391Z,75.50
2024-02-15T05:16:35.139Z,75.50
2024-02-15T05:19:04.520Z,75.40
2024-02-15T05:21:32.680Z,75.60
2024-02-15T05:24:00.726Z,75.50
2024-02-15T05:26:29.261Z,75.80
2024-02-15T05:28:57.153Z,75.80
2024-02-15T05:31:27.074Z,75.60
2024-02-15T05:33:55.877Z,75.50
2024-02-15T05:36:24.935Z,75.30
2024-02-15T05:38:54.208Z,75.60
2024-02-15T05:41:22.925Z,75.50
2024-02-15T05:43:50.921Z,75.50
2024-02-15T05:46:18.633Z,75.50
2024-02-15T05:48:47.865Z,75.70
2024-02-15T05:51:16.418Z,75.50
2024-02-15T05:53:44.903Z,75.50
2024-02-15T05:56:13.477Z,75.60
2024-02-15T05:58:41.525Z,75.50
2024-02-15T06:01:13.288Z,75.60
2024-02-15T06:03:42.917Z,75.70
2024-02-15T06:06:12.897Z,75.80
2024-02-15T06:08:40.825Z,75.70
2024-02-15T06:11:10.450Z,75.70
2024-02-15T06:13:38.191Z,75.60
2024-02-15T06:16:10.536Z,75.50
2024-02-15T06:18:42.518Z,75.80
2024-02-15T06:21:12.143Z,75.80
2024-02-15T06:23:40.221Z,75.90
2024-02-15T06:26:10.719Z,75.90
2024-02-15T06:28:56.183Z,75.70
2024-02-15T06:31:41.780Z,75.60
2024-02-15T06:34:27.505Z,75.70
2024-02-15T06:37:16.008Z,75.80
2024-02-15T06:39:44.650Z,75.90
2024-02-15T06:42:16.306Z,76.10
2024-02-15T06:44:44.648Z,75.80
2024-02-15T06:47:13.844Z,75.90
2024-02-15T06:49:42.181Z,76.10
2024-02-15T06:52:12.777Z,76.00
2024-02-15T06:54:41.097Z,76.00
2024-02-15T06:57:09.113Z,76.00
2024-02-15T06:59:38.584Z,76.00
2024-02-15T07:02:06.942Z,75.80
2024-02-15T07:04:35.033Z,76.00
2024-02-15T07:07:04.745Z,76.00
2024-02-15T07:09:34.015Z,75.80
2024-02-15T07:12:02.049Z,76.00
2024-02-15T07:14:30.235Z,76.10
2024-02-15T07:16:59.647Z,75.90
2024-02-15T07:19:28.427Z,75.90
2024-02-15T07:21:58.349Z,75.90
2024-02-15T07:24:28.882Z,76.00
2024-02-15T07:26:58.117Z,76.10
2024-02-15T07:29:26.475Z,76.10
2024-02-15T07:31:55.280Z,76.20
2024-02-15T07:34:27.913Z,76.20
2024-02-15T07:36:55.939Z,76.20
2024-02-15T07:39:26.675Z,76.20
2024-02-15T07:41:54.789Z,76.20
2024-02-15T07:44:24.355Z,76.20
2024-02-15T07:46:52.870Z,76.00
2024-02-15T07:49:21.227Z,76.10
2024-02-15T07:51:54.082Z,76.10
2024-02-15T07:54:23.044Z,76.00
2024-02-15T07:56:51.164Z,75.90
2024-02-15T07:59:20.178Z,76.00
2024-02-15T08:01:51.730Z,76.00
2024-02-15T08:04:20.455Z,75.70
2024-02-15T08:06:49.724Z,76.00
2024-02-15T08:09:19.452Z,75.80
2024-02-15T08:11:47.770Z,75.90
2024-02-15T08:14:15.751Z,76.10
2024-02-15T08:16:43.921Z,76.00
2024-02-15T08:19:13.547Z,76.20
2024-02-15T08:21:43.634Z,75.90
2024-02-15T08:24:11.624Z,75.90
2024-02-15T08:26:40.348Z,76.10
2024-02-15T08:29:08.605Z,76.10
2024-02-15T08:31:36.374Z,76.10
2024-02-15T08:34:06.688Z,76.10
2024-02-15T08:36:35.896Z,76.30
2024-02-15T08:39:05.489Z,76.40
2024-02-15T08:41:33.716Z,76.40
2024-02-15T08:44:02.755Z,76.40
2024-02-15T08:46:30.477Z,76.00
2024-02-15T08:48:58.730Z,76.20
2024-02-15T08:51:27.004Z,76.10
2024-02-15T08:53:58.924Z,76.20
2024-02-15T08:56:26.968Z,76.30
2024-02-15T08:58:54.886Z,76.30
2024-02-15T09:01:23.824Z,76.30
2024-02-15T09:03:51.889Z,76.30
2024-02-15T09:06:20.261Z,76.40
2024-02-15T09:08:49.179Z,76.40
2024-02-15T09:11:18.989Z,76.20
2024-02-15T09:13:47.808Z,76.30
2024-02-15T09:16:15.767Z,76.50
2024-02-15T09:18:46.957Z,76.50
2024-02-15T09:21:15.836Z,76.30
2024-02-15T09:23:43.727Z,76.30
2024-02-15T09:26:11.865Z,76.50
2024-02-15T09:28:42.025Z,76.50
2024-02-15T09:31:13.179Z,76.30
2024-02-15T09:33:41.382Z,76.40
2024-02-15T09:36:09.955Z,76.50
2024-02-15T09:38:38.277Z,76.50
2024-02-15T09:41:09.081Z,76.40
2024-02-15T09:43:37.732Z,76.50
2024-02-15T09:46:07.937Z,76.40
2024-02-15T09:48:36.787Z,76.60
2024-02-15T09:51:05.117Z,76.80
2024-02-15T09:53:32.908Z,76.60
2024-02-15T09:56:05.245Z,76.70
2024-02-15T09:58:35.348Z,76.80
2024-02-15T10:01:05.004Z,76.90
2024-02-15T10:03:34.359Z,77.00
2024-02-15T10:06:02.639Z,76.80
2024-02-15T10:08:31.487Z,76.70
2024-02-15T10:11:09.884Z,76.60
2024-02-15T10:13:38.786Z,76.70
2024-02-15T10:16:16.543Z,76.80
2024-02-15T10:18:45.784Z,76.80
2024-02-15T10:21:25.536Z,76.80
2024-02-15T10:24:06.326Z,76.70
2024-02-15T10:26:36.512Z,76.60
2024-02-15T10:29:09.932Z,76.60
2024-02-15T10:31:38.222Z,76.60
2024-02-15T10:34:08.732Z,76.40
2024-02-15T10:36:36.853Z,76.40
2024-02-15T10:39:18.156Z,76.70
2024-02-15T10:41:47.384Z,76.60
2024-02-15T10:44:19.492Z,76.50
2024-02-15T10:46:52.343Z,76.80
2024-02-15T10:49:22.936Z,76.70
2024-02-15T10:51:53.607Z,76.90
2024-02-15T10:54:43.873Z,76.70
2024-02-15T10:57:12.610Z,76.50
2024-02-15T10:59:42.606Z,76.80
2024-02-15T11:02:25.788Z,76.80
2024-02-15T11:04:57.937Z,76.70
2024-02-15T11:07:30.840Z,77.00
2024-02-15T11:10:00.361Z,77.00
2024-02-15T11:12:28.747Z,77.00
2024-02-15T11:14:57.058Z,76.80
2024-02-15T11:17:49.771Z,77.50
2024-02-15T11:20:51.226Z,77.00
2024-02-15T11:23:36.082Z,77.00
2024-02-15T11:26:06.382Z,77.10
2024-02-15T11:28:41.793Z,77.10
2024-02-15T11:31:11.269Z,76.90
2024-02-15T11:33:40.107Z,76.80
2024-02-15T11:36:11.517Z,77.00
2024-02-15T11:38:42.222Z,76.50
2024-02-15T11:41:12.024Z,76.80
2024-02-15T11:43:59.860Z,76.60
2024-02-15T11:46:31.457Z,76.70
2024-02-15T11:49:01.269Z,76.60
2024-02-15T11:51:38.781Z,76.50
2024-02-15T11:54:08.402Z,76.40
2024-02-15T11:57:06.486Z,76.40
2024-02-15T11:59:54.747Z,76.40
2024-02-15T12:02:40.665Z,76.30
2024-02-15T12:05:26.274Z,76.20
2024-02-15T12:08:22.057Z,76.30
2024-02-15T12:11:17.382Z,76.10
2024-02-15T12:14:06.157Z,76.60
2024-02-15T12:16:51.712Z,76.70
2024-02-15T12:19:20.224Z,76.50
2024-02-15T12:21:48.675Z,76.40
2024-02-15T12:24:22.145Z,76.50
2024-02-15T12:26:50.673Z,76.40
2024-02-15T12:29:19.521Z,76.40
2024-02-15T12:31:47.249Z,76.40
2024-02-15T12:34:17.999Z,76.40
2024-02-15T12:36:46.959Z,76.50
2024-02-15T12:39:17.831Z,76.70
2024-02-15T12:41:52.620Z,76.80
2024-02-15T12:44:22.001Z,76.50
2024-02-15T12:46:51.253Z,76.70
2024-02-15T12:49:30.355Z,77.00
2024-02-15T12:52:37.317Z,77.00
2024-02-15T12:55:12.767Z,77.00
2024-02-15T12:57:42.336Z,76.80
2024-02-15T13:00:15.494Z,77.00
2024-02-15T13:02:44.842Z,77.10
2024-02-15T13:05:15.308Z,77.20
2024-02-15T13:07:43.486Z,77.20
2024-02-15T13:10:11.994Z,77.20
2024-02-15T13:12:41.691Z,76.90
2024-02-15T13:15:12.825Z,76.80
2024-02-15T13:17:40.938Z,76.80
2024-02-15T13:20:14.229Z,77.10
2024-02-15T13:22:42.164Z,77.20
2024-02-15T13:25:10.797Z,77.00
2024-02-15T13:27:39.410Z,77.10
2024-02-15T13:30:10.604Z,76.90
2024-02-15T13:32:39.899Z,76.80
2024-02-15T13:35:13.973Z,76.80
2024-02-15T13:37:44.672Z,76.50
2024-02-15T13:40:16.321Z,76.70
2024-02-15T13:42:50.592Z,76.50
2024-02-15T13:45:19.954Z,76.60
2024-02-15T13:47:52.110Z,76.70
2024-02-15T13:50:20.769Z,76.60
2024-02-15T13:52:48.946Z,76.80
2024-02-15T13:55:17.395Z,77.00
2024-02-15T13:57:46.025Z,76.90
2024-02-15T14:00:22.482Z,77.00
2024-02-15T14:02:52.356Z,77.00
2024-02-15T14:05:21.294Z,76.80
2024-02-15T14:07:51.024Z,76.80
2024-02-15T14:10:20.883Z,76.80
2024-02-15T14:12:49.251Z,76.60
2024-02-15T14:15:18.750Z,76.60
2024-02-15T14:17:46.778Z,76.30
2024-02-15T14:20:16.710Z,76.40
2024-02-15T14:22:45.735Z,76.50
2024-02-15T14:25:14.222Z,76.40
2024-02-15T14:27:42.402Z,76.20
2024-02-15T14:30:28.302Z,76.40
2024-02-15T14:33:04.497Z,76.50
2024-02-15T14:35:36.610Z,76.60
2024-02-15T14:38:07.375Z,76.60
2024-02-15T14:43:06.713Z,76.40
2024-02-15T14:45:36.460Z,76.40
2024-02-15T14:48:04.955Z,76.50
2024-02-15T14:50:34.100Z,76.50
2024-02-15T14:53:02.459Z,76.60
2024-02-15T14:55:32.320Z,76.50
2024-02-15T14:58:04.331Z,76.60
2024-02-15T15:03:03.805Z,77.00
2024-02-15T15:05:49.601Z,76.90
2024-02-15T15:08:36.514Z,76.80
2024-02-15T15:11:22.027Z,77.00
2024-02-15T15:13:49.779Z,77.00
2024-02-15T15:16:21.666Z,77.00
2024-02-15T15:18:50.039Z,77.00
2024-02-15T15:21:18.248Z,77.10
2024-02-15T15:23:47.375Z,77.10
2024-02-15T15:26:20.903Z,77.20
2024-02-15T15:28:49.048Z,77.10
2024-02-15T15:31:17.145Z,77.10
2024-02-15T15:33:45.959Z,77.20
2024-02-15T15:36:14.229Z,77.20
2024-02-15T15:38:42.946Z,77.00
2024-02-15T15:41:13.273Z,77.30
2024-02-15T15:43:41.485Z,77.30
2024-02-15T15:46:14.557Z,77.30
2024-02-15T15:48:42.641Z,77.50
2024-02-15T15:51:12.137Z,77.20
2024-02-15T15:53:43.811Z,77.10
2024-02-15T15:56:13.619Z,77.30
2024-02-15T15:58:42.995Z,77.40
2024-02-15T16:01:13.284Z,77.50
2024-02-15T16:03:42.183Z,77.30
2024-02-15T16:06:10.437Z,77.40
2024-02-15T16:08:38.866Z,77.50
2024-02-15T16:11:08.096Z,77.40
2024-02-15T16:13:38.638Z,77.30
2024-02-15T16:16:07.654Z,77.50
2024-02-15T16:18:35.491Z,77.40
2024-02-15T16:21:04.219Z,77.60
2024-02-15T16:23:32.167Z,77.50
2024-02-15T16:26:01.772Z,77.40
2024-02-15T16:28:30.736Z,77.50
2024-02-15T16:31:14.623Z,77.70
2024-02-15T16:33:47.434Z,77.50
2024-02-15T16:36:16.658Z,77.50
2024-02-15T16:38:45.478Z,77.50
2024-02-15T16:41:13.235Z,77.60
2024-02-15T16:43:40.970Z,77.60
2024-02-15T16:46:10.026Z,77.70
2024-02-15T16:48:37.913Z,77.70
2024-02-15T16:51:08.084Z,77.80
2024-02-15T16:53:36.010Z,77.60
2024-02-15T16:56:04.491Z,77.70
2024-02-15T16:58:32.379Z,77.70
2024-02-15T17:01:00.857Z,77.50
2024-02-15T17:03:30.173Z,77.70
2024-02-15T17:05:59.615Z,77.80
2024-02-15T17:08:27.671Z,77.60
2024-02-15T17:10:55.524Z,77.50
2024-02-15T17:13:23.926Z,77.70
2024-02-15T17:15:52.076Z,77.80
2024-02-15T17:18:24.646Z,77.80
2024-02-15T17:20:56.812Z,78.60
2024-02-15T17:23:25.827Z,77.80
2024-02-15T17:25:55.403Z,77.70
2024-02-15T17:28:23.557Z,77.90
2024-02-15T17:30:52.694Z,77.90
2024-02-15T17:33:20.927Z,77.90
2024-02-15T17:35:51.442Z,77.90
2024-02-15T17:38:20.754Z,78.00
2024-02-15T17:40:50.506Z,78.00
2024-02-15T17:43:18.855Z,77.80
2024-02-15T17:45:48.226Z,78.00
2024-02-15T17:48:19.894Z,78.00
2024-02-15T17:50:48.613Z,77.90
2024-02-15T17:53:17.184Z,78.00
2024-02-15T17:55:51.964Z,78.10
2024-02-15T17:58:21.308Z,78.00
2024-02-15T18:00:49.914Z,78.00
2024-02-15T18:03:18.462Z,78.10
2024-02-15T18:05:48.765Z,78.00
2024-02-15T18:08:19.049Z,78.20
2024-02-15T18:10:49.442Z,78.00
2024-02-15T18:13:17.701Z,78.60
2024-02-15T18:15:51.028Z,78.00
2024-02-15T18:18:21.098Z,77.90
2024-02-15T18:20:49.646Z,77.80
2024-02-15T18:23:19.324Z,77.80
2024-02-15T18:25:49.145Z,77.80
2024-02-15T18:28:18.647Z,77.70
2024-02-15T18:30:48.788Z,78.00
2024-02-15T18:33:18.331Z,77.80
2024-02-15T18:35:46.503Z,77.80
2024-02-15T18:38:15.238Z,78.00
2024-02-15T18:40:43.709Z,78.20
2024-02-15T18:43:13.505Z,78.00
2024-02-15T18:45:41.594Z,78.10
2024-02-15T18:48:11.624Z,78.40
2024-02-15T18:50:39.915Z,78.30
2024-02-15T18:53:08.121Z,78.20
2024-02-15T18:55:36.153Z,78.20
2024-02-15T18:58:04.262Z,78.20
2024-02-15T19:00:40.122Z,78.20
2024-02-15T19:03:14.003Z,78.20
2024-02-15T19:05:44.997Z,78.20
2024-02-15T19:08:13.023Z,78.20
2024-02-15T19:10:41.211Z,78.30
2024-02-15T19:13:09.780Z,78.40
2024-02-15T19:15:40.402Z,78.10
2024-02-15T19:18:11.807Z,78.10
2024-02-15T19:20:40.359Z,78.20
2024-02-15T19:23:09.443Z,78.20
2024-02-15T19:25:39.150Z,78.10
2024-02-15T19:28:09.905Z,78.20
2024-02-15T19:30:39.460Z,78.10
2024-02-15T19:33:07.766Z,78.20
2024-02-15T19:35:35.724Z,78.20
2024-02-15T19:38:03.505Z,78.30
2024-02-15T19:40:31.339Z,78.30
2024-02-15T19:42:59.775Z,78.50
2024-02-15T19:45:28.693Z,78.40
2024-02-15T19:47:58.467Z,78.40
2024-02-15T19:50:28.476Z,78.50
2024-02-15T19:52:58.516Z,78.60
2024-02-15T19:55:27.888Z,78.50
2024-02-15T19:57:57.863Z,78.60
2024-02-15T20:00:26.379Z,78.70
2024-02-15T20:02:54.998Z,78.50
2024-02-15T20:05:27.794Z,78.50
2024-02-15T20:07:56.021Z,78.60
2024-02-15T20:10:24.316Z,78.70
2024-02-15T20:12:52.399Z,78.60
2024-02-15T20:15:20.728Z,78.60
2024-02-15T20:17:48.992Z,78.60
2024-02-15T20:20:19.826Z,78.70
2024-02-15T20:22:49.662Z,78.70
2024-02-15T20:25:17.776Z,78.70
2024-02-15T20:27:45.608Z,78.70
2024-02-15T20:30:16.065Z,78.80
2024-02-15T20:32:44.027Z,78.70
2024-02-15T20:35:11.845Z,78.70
2024-02-15T20:37:40.128Z,78.60
2024-02-15T20:40:11.114Z,78.70
2024-02-15T20:42:39.733Z,78.60
2024-02-15T20:45:09.247Z,78.80
2024-02-15T20:47:39.477Z,78.60
2024-02-15T20:50:09.062Z,78.90
2024-02-15T20:52:37.166Z,78.80
2024-02-15T20:55:05.536Z,78.80
2024-02-15T20:57:34.698Z,78.90
2024-02-15T21:00:02.941Z,78.80
2024-02-15T21:02:32.764Z,78.70
2024-02-15T21:05:00.977Z,78.70
2024-02-15T21:07:29.341Z,78.90
2024-02-15T21:09:58.082Z,78.60
2024-02-15T21:12:26.289Z,78.70
2024-02-15T21:14:56.021Z,78.80
2024-02-15T21:17:24.799Z,78.80
2024-02-15T21:19:52.971Z,78.60
2024-02-15T21:22:21.287Z,78.70
2024-02-15T21:24:49.839Z,78.60
2024-02-15T21:27:18.980Z,78.90
2024-02-15T21:29:47.491Z,78.50
2024-02-15T21:32:17.904Z,78.60
2024-02-15T21:34:45.988Z,78.50
2024-02-15T21:37:15.264Z,78.50
2024-02-15T21:39:43.934Z,78.50
2024-02-15T21:42:12.210Z,78.20
2024-02-15T21:44:40.279Z,78.20
2024-02-15T21:47:10.132Z,78.50
2024-02-15T21:49:41.845Z,78.20
2024-02-15T21:52:10.596Z,78.50
2024-02-15T21:54:38.548Z,78.60
2024-02-15T21:57:07.536Z,78.40
2024-02-15T21:59:36.107Z,78.80
2024-02-15T22:02:08.770Z,78.40
2024-02-15T22:04:37.050Z,78.30
2024-02-15T22:07:08.015Z,78.60
2024-02-15T22:09:39.312Z,78.40
2024-02-15T22:12:10.175Z,78.40
2024-02-15T22:14:40.270Z,78.40
2024-02-15T22:17:08.437Z,78.20
2024-02-15T22:19:36.357Z,78.40
2024-02-15T22:22:07.435Z,78.40
2024-02-15T22:24:35.234Z,78.20
2024-02-15T22:27:04.757Z,78.20
2024-02-15T22:29:33.914Z,78.00
2024-02-15T22:32:02.132Z,78.10
2024-02-15T22:34:30.422Z,78.10
2024-02-15T22:36:58.191Z,78.20
2024-02-15T22:39:29.011Z,78.40
2024-02-15T22:41:59.372Z,78.30
2024-02-15T22:44:27.759Z,78.50
2024-02-15T22:46:56.133Z,78.30
2024-02-15T22:49:24.291Z,78.40
2024-02-15T22:51:52.855Z,78.10
2024-02-15T22:54:20.695Z,78.20
2024-02-15T22:56:50.226Z,78.20
2024-02-15T22:59:19.161Z,78.20
2024-02-15T23:01:47.486Z,78.00
2024-02-15T23:04:15.566Z,77.90
2024-02-15T23:06:43.860Z,78.00
2024-02-15T23:09:12.173Z,77.70
2024-02-15T23:11:40.392Z,78.20
2024-02-15T23:14:11.385Z,78.00
2024-02-15T23:16:39.292Z,78.10
2024-02-15T23:19:07.773Z,77.90
2024-02-15T23:21:35.775Z,78.20
2024-02-15T23:24:03.602Z,77.90
2024-02-15T23:26:31.443Z,78.00
2024-02-15T23:28:59.208Z,77.90
2024-02-15T23:31:28.675Z,77.80
2024-02-15T23:33:56.692Z,77.60
2024-02-15T23:36:42.005Z,78.00
2024-02-15T23:39:47.972Z,77.70
2024-02-15T23:42:15.934Z,77.90
2024-02-15T23:44:43.947Z,77.90
2024-02-15T23:47:13.038Z,77.60
2024-02-15T23:49:40.752Z,77.90
2024-02-15T23:52:09.598Z,77.90
2024-02-15T23:54:38.119Z,77.60
2024-02-15T23:57:07.173Z,77.70
2024-02-15T23:59:35.247Z,77.70
